sensor_id;sensor_type;location;lat;lon;timestamp;pressure;altitude;pressure_sealevel;temperature
77385;BMP280;66444;49.680;18.538;2024-02-23T00:04:31;95300.26075351046;;;10.970148204965517
77385;BMP280;66444;49.680;18.538;2024-02-23T00:09:34;95299.90051102119;;;10.949801556998864
77385;BMP280;66444;49.680;18.538;2024-02-23T00:14:38;95270.68539620806;;;10.914194698957726
77385;BMP280;66444;49.680;18.538;2024-02-23T00:19:44;95275.71206303687;;;10.822632897179574
77385;BMP280;66444;49.680;18.538;2024-02-23T00:24:48;95303.87170101888;;;10.761590648256242
77385;BMP280;66444;49.680;18.538;2024-02-23T00:29:52;95317.22335050642;;;10.690373631799593
77385;BMP280;66444;49.680;18.538;2024-02-23T00:34:56;95301.63732071008;;;10.710721467202529
77385;BMP280;66444;49.680;18.538;2024-02-23T00:40:00;95301.27498098646;;;10.690373631799593
77385;BMP280;66444;49.680;18.538;2024-02-23T00:45:09;95287.26049794198;;;10.64967768159695
77385;BMP280;66444;49.680;18.538;2024-02-23T00:50:13;95292.57623351351;;;10.64967768159695
77385;BMP280;66444;49.680;18.538;2024-02-23T00:55:22;95284.24037790042;;;10.629329566797242
77385;BMP280;66444;49.680;18.538;2024-02-23T01:00:25;95290.70352770988;;;10.619155474472791
77385;BMP280;66444;49.680;18.538;2024-02-23T01:05:29;95316.52569787262;;;10.614068419579416
77385;BMP280;66444;49.680;18.538;2024-02-23T01:10:32;95283.51541982456;;;10.588633057801053
77385;BMP280;66444;49.680;18.538;2024-02-23T01:15:37;95266.06004010697;;;10.578458872344346
77385;BMP280;66444;49.680;18.538;2024-02-23T01:20:45;95307.04200313418;;;10.60389429233037
77385;BMP280;66444;49.680;18.538;2024-02-23T01:25:49;95331.29745364952;;;10.659851704072207
77385;BMP280;66444;49.680;18.538;2024-02-23T01:30:52;95298.61692794236;;;10.690373631799593
77385;BMP280;66444;49.680;18.538;2024-02-23T01:35:56;95322.11768366318;;;10.74124304568395
77385;BMP280;66444;49.680;18.538;2024-02-23T01:41:00;95311.48452930187;;;10.74124304568395
77385;BMP280;66444;49.680;18.538;2024-02-23T01:46:03;95284.90181427823;;;10.74124304568395
77385;BMP280;66444;49.680;18.538;2024-02-23T01:51:08;95276.6290560839;;;10.64967768159695
77385;BMP280;66444;49.680;18.538;2024-02-23T01:56:12;95275.14995337442;;;10.60389429233037
77385;BMP280;66444;49.680;18.538;2024-02-23T02:01:18;95248.6053005932;;;10.568284663604572
77385;BMP280;66444;49.680;18.538;2024-02-23T02:06:21;95266.81495746452;;;10.583545967983081
77385;BMP280;66444;49.680;18.538;2024-02-23T02:11:26;95273.69984736636;;;10.522500436147675
77385;BMP280;66444;49.680;18.538;2024-02-23T02:16:29;95269.1402339501;;;10.52758759581484
77385;BMP280;66444;49.680;18.538;2024-02-23T02:21:33;95253.19635440221;;;10.52758759581484
77385;BMP280;66444;49.680;18.538;2024-02-23T02:26:37;95270.65021409998;;;10.537761897686869
77385;BMP280;66444;49.680;18.538;2024-02-23T02:31:46;95237.97540905241;;;10.568284663604572
77385;BMP280;66444;49.680;18.538;2024-02-23T02:36:50;95260.02076972625;;;10.537761897686869
77385;BMP280;66444;49.680;18.538;2024-02-23T02:41:55;95258.51097116043;;;10.52758759581484
77385;BMP280;66444;49.680;18.538;2024-02-23T02:46:59;95272.91519860098;;;10.553023306839169
77385;BMP280;66444;49.680;18.538;2024-02-23T02:52:03;95282.00531082452;;;10.578458872344346
77385;BMP280;66444;49.680;18.538;2024-02-23T02:57:07;95296.80343950658;;;10.588633057801053
77385;BMP280;66444;49.680;18.538;2024-02-23T03:02:10;95299.09781850023;;;10.568284663604572
77385;BMP280;66444;49.680;18.538;2024-02-23T03:07:19;95323.01563439262;;;10.568284663604572
77385;BMP280;66444;49.680;18.538;2024-02-23T03:12:23;95346.98422729869;;;10.497064550500363
77385;BMP280;66444;49.680;18.538;2024-02-23T03:17:27;95349.32344183794;;;10.405494157271459
77385;BMP280;66444;49.680;18.538;2024-02-23T03:22:36;95353.90400262595;;;10.364795599365607
77385;BMP280;66444;49.680;18.538;2024-02-23T03:27:39;95345.97855969981;;;10.293572226632387
77385;BMP280;66444;49.680;18.538;2024-02-23T03:32:43;95347.53289981981;;;10.232522713392973
77385;BMP280;66444;49.680;18.538;2024-02-23T03:37:47;95368.78190814708;;;10.232522713392973
77385;BMP280;66444;49.680;18.538;2024-02-23T03:42:50;95388.53649600137;;;10.186735028401017
77385;BMP280;66444;49.680;18.538;2024-02-23T03:47:54;95385.49339960566;;;10.201997642451897
77385;BMP280;66444;49.680;18.538;2024-02-23T03:52:58;95388.51850715691;;;10.222347713029013
77385;BMP280;66444;49.680;18.538;2024-02-23T03:58:02;95395.34338789489;;;10.232522713392973
77385;BMP280;66444;49.680;18.538;2024-02-23T04:03:06;95400.65571308963;;;10.232522713392973
77385;BMP280;66444;49.680;18.538;2024-02-23T04:08:09;95390.06664628864;;;10.161297221900895
77385;BMP280;66444;49.680;18.538;2024-02-23T04:13:13;95399.20926797105;;;10.079895263211801
77385;BMP280;66444;49.680;18.538;2024-02-23T04:18:17;95440.52818433584;;;10.161297221900895
77385;BMP280;66444;49.680;18.538;2024-02-23T04:23:21;95418.13839559713;;;10.171472361963243
77385;BMP280;66444;49.680;18.538;2024-02-23T04:28:24;95442.44115513991;;;10.120596428820864
77385;BMP280;66444;49.680;18.538;2024-02-23T04:33:28;95441.69763776944;;;10.079895263211801
77385;BMP280;66444;49.680;18.538;2024-02-23T04:38:32;95424.26462033817;;;10.034106006613001
77385;BMP280;66444;49.680;18.538;2024-02-23T04:43:36;95426.90646123263;;;10.069719913601876
77385;BMP280;66444;49.680;18.538;2024-02-23T04:48:40;95430.69021064701;;;10.095158243970946
77385;BMP280;66444;49.680;18.538;2024-02-23T04:53:44;95403.77864322747;;;10.03919372507371
77385;BMP280;66444;49.680;18.538;2024-02-23T04:58:48;95400.75236010701;;;10.018842816306279
77385;BMP280;66444;49.680;18.538;2024-02-23T05:03:51;95409.0893117013;;;10.03919372507371
77385;BMP280;66444;49.680;18.538;2024-02-23T05:08:54;95391.24276805659;;;10.079895263211801
77385;BMP280;66444;49.680;18.538;2024-02-23T05:13:57;95383.27629006511;;;10.079895263211801
77385;BMP280;66444;49.680;18.538;2024-02-23T05:19:00;95401.46290051864;;;10.130771662015468
77385;BMP280;66444;49.680;18.538;2024-02-23T05:24:04;95422.67790586897;;;10.201997642451897
77385;BMP280;66444;49.680;18.538;2024-02-23T05:29:07;95429.47077663969;;;10.283397365966811
77385;BMP280;66444;49.680;18.538;2024-02-23T05:34:10;95437.77582194215;;;10.374970273766667
77385;BMP280;66444;49.680;18.538;2024-02-23T05:39:13;95447.62915531266;;;10.405494157271459
77385;BMP280;66444;49.680;18.538;2024-02-23T05:44:16;95455.19547176467;;;10.456366830784827
77385;BMP280;66444;49.680;18.538;2024-02-23T05:49:19;95452.15090607532;;;10.4716285193339
77385;BMP280;66444;49.680;18.538;2024-02-23T05:54:22;95463.16703259794;;;10.456366830784827
77385;BMP280;66444;49.680;18.538;2024-02-23T05:59:26;95481.76742656942;;;10.456366830784827
77385;BMP280;66444;49.680;18.538;2024-02-23T06:04:34;95489.35259622353;;;10.4716285193339
77385;BMP280;66444;49.680;18.538;2024-02-23T06:09:38;95496.19671151877;;;10.446192342648283
77385;BMP280;66444;49.680;18.538;2024-02-23T06:14:41;95501.51107020928;;;10.446192342648283
77385;BMP280;66444;49.680;18.538;2024-02-23T06:19:45;95515.95363163762;;;10.40040685790591
77385;BMP280;66444;49.680;18.538;2024-02-23T06:24:48;95528.8662864508;;;10.380057602236047
77385;BMP280;66444;49.680;18.538;2024-02-23T06:29:54;95541.02050356088;;;10.354620901681482
77385;BMP280;66444;49.680;18.538;2024-02-23T06:34:57;95574.4273568537;;;10.329184055607765
77385;BMP280;66444;49.680;18.538;2024-02-23T06:40:00;95595.6732729218;;;10.364795599365607
77385;BMP280;66444;49.680;18.538;2024-02-23T06:45:06;95602.14267409453;;;10.283397365966811
77385;BMP280;66444;49.680;18.538;2024-02-23T06:50:09;95614.66114766938;;;10.313921878114343
77385;BMP280;66444;49.680;18.538;2024-02-23T06:55:12;95632.87033731306;;;10.364795599365607
77385;BMP280;66444;49.680;18.538;2024-02-23T07:00:15;95641.61000913392;;;10.298659648234025
77385;BMP280;66444;49.680;18.538;2024-02-23T07:05:19;95641.99149754616;;;10.283397365966811
77385;BMP280;66444;49.680;18.538;2024-02-23T07:10:22;95658.69301989616;;;10.2528726442717
77385;BMP280;66444;49.680;18.538;2024-02-23T07:15:25;95655.66143732108;;;10.196910110255704
77385;BMP280;66444;49.680;18.538;2024-02-23T07:20:28;95654.14168140967;;;10.222347713029013
77385;BMP280;66444;49.680;18.538;2024-02-23T07:25:31;95656.41038170972;;;10.308834473975002
77385;BMP280;66444;49.680;18.538;2024-02-23T07:30:39;95656.01948407541;;;10.395319552719593
77385;BMP280;66444;49.680;18.538;2024-02-23T07:35:42;95663.98567624592;;;10.430930566787719
77385;BMP280;66444;49.680;18.538;2024-02-23T07:40:49;95672.32871762184;;;10.486890155496075
77385;BMP280;66444;49.680;18.538;2024-02-23T07:45:52;95673.83958164848;;;10.532674749661236
77385;BMP280;66444;49.680;18.538;2024-02-23T07:50:55;95667.75146014367;;;10.598807219974697
77385;BMP280;66444;49.680;18.538;2024-02-23T07:55:58;95670.77671372972;;;10.654764695744962
77385;BMP280;66444;49.680;18.538;2024-02-23T08:01:06;95673.42649719147;;;10.690373631799593
77385;BMP280;66444;49.680;18.538;2024-02-23T08:06:09;95672.28465182002;;;10.700547561142594
77385;BMP280;66444;49.680;18.538;2024-02-23T08:11:12;95664.69309385553;;;10.685286658396944
77385;BMP280;66444;49.680;18.538;2024-02-23T08:16:15;95672.28465182002;;;10.700547561142594
77385;BMP280;66444;49.680;18.538;2024-02-23T08:21:18;95666.58397999169;;;10.715808411501348
77385;BMP280;66444;49.680;18.538;2024-02-23T08:26:22;95683.6848867213;;;10.6700257032644
77385;BMP280;66444;49.680;18.538;2024-02-23T08:31:24;95690.90844566033;;;10.629329566797242
77385;BMP280;66444;49.680;18.538;2024-02-23T08:36:27;95695.84217045845;;;10.644590661628172
77385;BMP280;66444;49.680;18.538;2024-02-23T08:41:30;95686.34320528946;;;10.6700257032644
77385;BMP280;66444;49.680;18.538;2024-02-23T08:46:33;95695.4361095552;;;10.7666775343474
77385;BMP280;66444;49.680;18.538;2024-02-23T08:51:36;95697.29854815731;;;10.904021258559078
77385;BMP280;66444;49.680;18.538;2024-02-23T08:56:39;95717.03685033553;;;10.965061551705002
77385;BMP280;66444;49.680;18.538;2024-02-23T09:01:42;95712.46507200616;;;11.005754614807666
77385;BMP280;66444;49.680;18.538;2024-02-23T09:06:45;95730.31487120637;;;11.036274167662487
77385;BMP280;66444;49.680;18.538;2024-02-23T09:11:49;95730.67758280809;;;11.092226136988028
77385;BMP280;66444;49.680;18.538;2024-02-23T09:16:51;95754.98301456148;;;11.148177402000874
77385;BMP280;66444;49.680;18.538;2024-02-23T09:21:55;95754.9480764785;;;11.254991497611627
77385;BMP280;66444;49.680;18.538;2024-02-23T09:26:58;95758.72764069845;;;11.316026971163229
77385;BMP280;66444;49.680;18.538;2024-02-23T09:32:01;95756.42511025748;;;11.371975418925285
77385;BMP280;66444;49.680;18.538;2024-02-23T09:37:04;95761.71928082572;;;11.443181515624747
77385;BMP280;66444;49.680;18.538;2024-02-23T09:42:07;95766.26954034241;;;11.473698064964264
77385;BMP280;66444;49.680;18.538;2024-02-23T09:47:12;95762.4305314044;;;11.555074505414813
77385;BMP280;66444;49.680;18.538;2024-02-23T09:52:21;95761.54382136207;;;11.799194886069746
77385;BMP280;66444;49.680;18.538;2024-02-23T09:57:25;95753.78714632739;;;12.033130999701097
77385;BMP280;66444;49.680;18.538;2024-02-23T10:02:29;95769.56970779847;;;12.317906166100874
77385;BMP280;66444;49.680;18.538;2024-02-23T10:07:32;95767.94022690319;;;12.450117002706975
77385;BMP280;66444;49.680;18.538;2024-02-23T10:12:35;95769.33221417865;;;12.602663078578189
77385;BMP280;66444;49.680;18.538;2024-02-23T10:17:38;95784.54417117854;;;12.633171665109694
77385;BMP280;66444;49.680;18.538;2024-02-23T10:22:42;95786.02740121039;;;12.67893415200524
77385;BMP280;66444;49.680;18.538;2024-02-23T10:27:46;95793.69667582064;;;12.623002159548923
77385;BMP280;66444;49.680;18.538;2024-02-23T10:32:49;95800.66332601033;;;12.490796468500047
77385;BMP280;66444;49.680;18.538;2024-02-23T10:37:57;95804.53521243048;;;12.409437164384872
77385;BMP280;66444;49.680;18.538;2024-02-23T10:43:01;95794.65644433635;;;12.378927041171119
77385;BMP280;66444;49.680;18.538;2024-02-23T10:48:12;95792.38304093813;;;12.3636719009839
77385;BMP280;66444;49.680;18.538;2024-02-23T10:53:17;95795.63623045302;;;12.582323904475198
77385;BMP280;66444;49.680;18.538;2024-02-23T10:58:22;95814.18317595717;;;12.724696167418733
77385;BMP280;66444;49.680;18.538;2024-02-23T11:03:26;95796.96138800507;;;12.806049697333947
77385;BMP280;66444;49.680;18.538;2024-02-23T11:08:32;95787.08175065162;;;12.775542298238724
77385;BMP280;66444;49.680;18.538;2024-02-23T11:13:36;95788.78288521561;;;12.98400534898974
77385;BMP280;66444;49.680;18.538;2024-02-23T11:18:41;95796.60155814367;;;13.161953870207071
77385;BMP280;66444;49.680;18.538;2024-02-23T11:23:45;95799.90982616553;;;13.273803576780484
77385;BMP280;66444;49.680;18.538;2024-02-23T11:28:51;95811.10238567204;;;13.151785575365647
77385;BMP280;66444;49.680;18.538;2024-02-23T11:33:55;95804.24964453393;;;13.14161725724116
77385;BMP280;66444;49.680;18.538;2024-02-23T11:38:59;95825.67506924931;;;13.070438378443942
77385;BMP280;66444;49.680;18.538;2024-02-23T11:44:05;95838.39669824758;;;12.922992785973474
77385;BMP280;66444;49.680;18.538;2024-02-23T11:49:08;95833.97619988554;;;12.750119305588305
77385;BMP280;66444;49.680;18.538;2024-02-23T11:54:11;95813.90976753447;;;12.59757829378359
77385;BMP280;66444;49.680;18.538;2024-02-23T11:59:15;95805.20987922249;;;12.521305823372677
77385;BMP280;66444;49.680;18.538;2024-02-23T12:04:19;95810.48524142963;;;12.592493503168225
77385;BMP280;66444;49.680;18.538;2024-02-23T12:09:22;95812.00073416652;;;12.602663078578189
77385;BMP280;66444;49.680;18.538;2024-02-23T12:14:25;95810.90748693135;;;12.54164527687244
77385;BMP280;66444;49.680;18.538;2024-02-23T12:19:37;95824.66018967511;;;12.490796468500047
77385;BMP280;66444;49.680;18.538;2024-02-23T12:24:41;95822.77866951577;;;12.46028690407984
77385;BMP280;66444;49.680;18.538;2024-02-23T12:29:51;95817.86503461488;;;12.409437164384872
77385;BMP280;66444;49.680;18.538;2024-02-23T12:34:55;95822.77866951577;;;12.46028690407984
77385;BMP280;66444;49.680;18.538;2024-02-23T12:40:07;95813.29102781869;;;12.414522164547815
77385;BMP280;66444;49.680;18.538;2024-02-23T12:45:21;95814.46709168023;;;12.368756953533738
77385;BMP280;66444;49.680;18.538;2024-02-23T12:50:24;95797.6876745902;;;12.399267146596685
77385;BMP280;66444;49.680;18.538;2024-02-23T12:55:27;95809.81288933754;;;12.480626636976377
77385;BMP280;66444;49.680;18.538;2024-02-23T13:00:31;95819.74680579125;;;12.439947078051045
77385;BMP280;66444;49.680;18.538;2024-02-23T13:05:34;95828.99401490393;;;12.287395414244383
77385;BMP280;66444;49.680;18.538;2024-02-23T13:10:37;95845.8719642884;;;12.078899668250234
77385;BMP280;66444;49.680;18.538;2024-02-23T13:15:40;95838.83858038452;;;11.656792960502207
77385;BMP280;66444;49.680;18.538;2024-02-23T13:20:44;95847.27055671999;;;11.463525905134157
77385;BMP280;66444;49.680;18.538;2024-02-23T13:25:48;95834.76851192556;;;11.290595625713468
77385;BMP280;66444;49.680;18.538;2024-02-23T13:30:51;95830.24213960144;;;11.117658617487177
77385;BMP280;66444;49.680;18.538;2024-02-23T13:35:56;95839.38216634527;;;10.965061551705002
77385;BMP280;66444;49.680;18.538;2024-02-23T13:41:00;95839.76614722122;;;10.914194698957726
77385;BMP280;66444;49.680;18.538;2024-02-23T13:46:04;95842.04696159084;;;10.893847794877365
77385;BMP280;66444;49.680;18.538;2024-02-23T13:51:07;95847.74758364988;;;10.842980127222836
77385;BMP280;66444;49.680;18.538;2024-02-23T13:56:10;95848.50803818041;;;10.776851289067418
77385;BMP280;66444;49.680;18.538;2024-02-23T14:01:14;95853.44117596622;;;10.64967768159695
77385;BMP280;66444;49.680;18.538;2024-02-23T14:06:17;95856.84974136579;;;10.547936176275835
77385;BMP280;66444;49.680;18.538;2024-02-23T14:11:21;95851.89757052247;;;10.425843296526
77385;BMP280;66444;49.680;18.538;2024-02-23T14:16:25;95852.65182088339;;;10.395319552719593
77385;BMP280;66444;49.680;18.538;2024-02-23T14:21:33;95860.99338472547;;;10.344446180714295
77385;BMP280;66444;49.680;18.538;2024-02-23T14:26:37;95860.22556087148;;;10.303747064014896
77385;BMP280;66444;49.680;18.538;2024-02-23T14:31:40;95865.17092426537;;;10.354620901681482
77385;BMP280;66444;49.680;18.538;2024-02-23T14:36:45;95866.2996404303;;;10.308834473975002
77385;BMP280;66444;49.680;18.538;2024-02-23T14:41:49;95861.36193775451;;;10.293572226632387
77385;BMP280;66444;49.680;18.538;2024-02-23T14:47:05;95867.42730845002;;;10.26304757478647
77385;BMP280;66444;49.680;18.538;2024-02-23T14:52:08;95857.53350395421;;;10.161297221900895
77385;BMP280;66444;49.680;18.538;2024-02-23T14:57:12;95854.4711198762;;;10.069719913601876
77385;BMP280;66444;49.680;18.538;2024-02-23T15:02:20;95852.93895159183;;;10.023930552229285
77385;BMP280;66444;49.680;18.538;2024-02-23T15:07:24;95855.22024334142;;;10.03919372507371
77385;BMP280;66444;49.680;18.538;2024-02-23T15:12:28;95848.77375139613;;;10.049369144532829
77385;BMP280;66444;49.680;18.538;2024-02-23T15:17:31;95850.68008282545;;;10.079895263211801
77385;BMP280;66444;49.680;18.538;2024-02-23T15:22:35;95833.9939130488;;;10.110421172343194
77385;BMP280;66444;49.680;18.538;2024-02-23T15:27:43;95854.49214463138;;;10.140946871927008
77385;BMP280;66444;49.680;18.538;2024-02-23T15:32:46;95854.85676737704;;;10.090070589538664
77385;BMP280;66444;49.680;18.538;2024-02-23T15:37:50;95855.60615734998;;;10.059544540708885
77385;BMP280;66444;49.680;18.538;2024-02-23T15:42:53;95866.60377148214;;;10.044281437713654
77385;BMP280;66444;49.680;18.538;2024-02-23T15:47:56;95873.42384311404;;;10.018842816306279
77385;BMP280;66444;49.680;18.538;2024-02-23T15:53:00;95864.29669440066;;;9.957789531210437
77385;BMP280;66444;49.680;18.538;2024-02-23T15:58:03;95865.81786645704;;;9.967965136934072
77385;BMP280;66444;49.680;18.538;2024-02-23T16:03:08;95855.95659408066;;;9.97305293106474
77385;BMP280;66444;49.680;18.538;2024-02-23T16:08:11;95855.95659408066;;;9.97305293106474
77385;BMP280;66444;49.680;18.538;2024-02-23T16:13:15;95851.40613269951;;;9.978140719374641
77385;BMP280;66444;49.680;18.538;2024-02-23T16:18:18;95852.17852488336;;;10.018842816306279
77385;BMP280;66444;49.680;18.538;2024-02-23T16:23:22;95844.5972794377;;;10.03919372507371
77385;BMP280;66444;49.680;18.538;2024-02-23T16:28:25;95832.45385463702;;;10.029018282331526
77385;BMP280;66444;49.680;18.538;2024-02-23T16:33:28;95840.05643140888;;;10.079895263211801
77385;BMP280;66444;49.680;18.538;2024-02-23T16:38:32;95836.26506808409;;;10.090070589538664
77385;BMP280;66444;49.680;18.538;2024-02-23T16:43:36;95838.55507673572;;;10.140946871927008
77385;BMP280;66444;49.680;18.538;2024-02-23T16:48:39;95840.82645780714;;;10.120596428820864
77385;BMP280;66444;49.680;18.538;2024-02-23T16:53:44;95834.01134680762;;;10.181647478742525
77385;BMP280;66444;49.680;18.538;2024-02-23T16:58:53;95846.52359971988;;;10.140946871927008
77385;BMP280;66444;49.680;18.538;2024-02-23T17:03:57;95844.61807035837;;;10.110421172343194
77385;BMP280;66444;49.680;18.538;2024-02-23T17:09:00;95853.72153096802;;;10.10024589258246
77385;BMP280;66444;49.680;18.538;2024-02-23T17:14:03;95846.90841902216;;;10.161297221900895
77385;BMP280;66444;49.680;18.538;2024-02-23T17:19:08;95857.92783484655;;;10.217260204115883
77385;BMP280;66444;49.680;18.538;2024-02-23T17:24:11;95843.88509027673;;;10.212172689381987
77385;BMP280;66444;49.680;18.538;2024-02-23T17:29:14;95833.26659552286;;;10.24778517028317
77385;BMP280;66444;49.680;18.538;2024-02-23T17:34:18;95837.0669128465;;;10.273222482018173
77385;BMP280;66444;49.680;18.538;2024-02-23T17:39:21;95832.51984778719;;;10.313921878114343
77385;BMP280;66444;49.680;18.538;2024-02-23T17:44:24;95835.55983466715;;;10.334271436464041
77385;BMP280;66444;49.680;18.538;2024-02-23T17:49:28;95819.62693245606;;;10.405494157271459
77385;BMP280;66444;49.680;18.538;2024-02-23T17:54:31;95824.19233735136;;;10.507238922221585
77385;BMP280;66444;49.680;18.538;2024-02-23T17:59:34;95828.75085974432;;;10.537761897686869
77385;BMP280;66444;49.680;18.538;2024-02-23T18:04:38;95836.34855028182;;;10.588633057801053
77385;BMP280;66444;49.680;18.538;2024-02-23T18:09:41;95801.41342587983;;;10.639503635838627
77385;BMP280;66444;49.680;18.538;2024-02-23T18:14:45;95801.79279590573;;;10.659851704072207
77385;BMP280;66444;49.680;18.538;2024-02-23T18:19:53;95827.2375059765;;;10.74124304568395
77385;BMP280;66444;49.680;18.538;2024-02-23T18:25:02;95821.9171735573;;;10.812459247233345
77385;BMP280;66444;49.680;18.538;2024-02-23T18:30:13;95809.76222860352;;;10.802285574004054
77385;BMP280;66444;49.680;18.538;2024-02-23T18:35:22;95797.98572739151;;;10.812459247233345
77385;BMP280;66444;49.680;18.538;2024-02-23T18:40:26;95800.2597908641;;;10.86332726413384
77385;BMP280;66444;49.680;18.538;2024-02-23T18:45:29;95793.80033319982;;;10.873500797664747
77385;BMP280;66444;49.680;18.538;2024-02-23T18:50:33;95774.04397826742;;;10.883674307912589
77385;BMP280;66444;49.680;18.538;2024-02-23T18:55:36;95766.824928682;;;10.888761054305359
77385;BMP280;66444;49.680;18.538;2024-02-23T19:00:39;95764.15889151064;;;10.92436811607331
77385;BMP280;66444;49.680;18.538;2024-02-23T19:05:48;95787.70594184495;;;10.975234852405265
77385;BMP280;66444;49.680;18.538;2024-02-23T19:10:51;95780.10273928757;;;10.995581383956596
77385;BMP280;66444;49.680;18.538;2024-02-23T19:15:55;95772.49887942674;;;11.01592782237567
77385;BMP280;66444;49.680;18.538;2024-02-23T19:20:59;95729.1718259138;;;11.046447305381298
77385;BMP280;66444;49.680;18.538;2024-02-23T19:26:02;95720.79518541068;;;11.09731264472939
77385;BMP280;66444;49.680;18.538;2024-02-23T19:31:07;95715.47478954401;;;11.09731264472939
77385;BMP280;66444;49.680;18.538;2024-02-23T19:36:10;95730.64093417933;;;11.199041577195748
77385;BMP280;66444;49.680;18.538;2024-02-23T19:41:19;95709.34129857586;;;11.234646153496579
77385;BMP280;66444;49.680;18.538;2024-02-23T19:46:22;95725.26206951698;;;11.341458171093837
77385;BMP280;66444;49.680;18.538;2024-02-23T19:51:26;95719.1654433462;;;11.371975418925285
77385;BMP280;66444;49.680;18.538;2024-02-23T19:56:29;95732.81104565342;;;11.463525905134157
77385;BMP280;66444;49.680;18.538;2024-02-23T20:01:33;95690.91990486854;;;11.575418382696807
77385;BMP280;66444;49.680;18.538;2024-02-23T20:06:36;95704.5360575177;;;11.702565505681559
77385;BMP280;66444;49.680;18.538;2024-02-23T20:11:39;95700.70295118607;;;11.748337579378859
77385;BMP280;66444;49.680;18.538;2024-02-23T20:16:43;95714.01798151131;;;11.748337579378859
77385;BMP280;66444;49.680;18.538;2024-02-23T20:21:46;95705.29370706771;;;11.70765131493099
77385;BMP280;66444;49.680;18.538;2024-02-23T20:26:50;95690.83181515614;;;11.717822915967554
77385;BMP280;66444;49.680;18.538;2024-02-23T20:31:53;95702.218103959;;;11.758509087283164
77385;BMP280;66444;49.680;18.538;2024-02-23T20:36:57;95701.43724851667;;;11.789023471297696
77385;BMP280;66444;49.680;18.538;2024-02-23T20:42:05;95683.94342034475;;;11.778852033242583
77385;BMP280;66444;49.680;18.538;2024-02-23T20:47:09;95682.03768711415;;;11.783937755180522
77385;BMP280;66444;49.680;18.538;2024-02-23T20:52:12;95676.32024069522;;;11.799194886069746
77385;BMP280;66444;49.680;18.538;2024-02-23T20:57:17;95703.31923405534;;;11.81953764576465
77385;BMP280;66444;49.680;18.538;2024-02-23T21:02:21;95694.96268463021;;;11.799194886069746
77385;BMP280;66444;49.680;18.538;2024-02-23T21:07:26;95679.76554614214;;;11.768680571904406
77385;BMP280;66444;49.680;18.538;2024-02-23T21:12:32;95668.69640309752;;;11.81953764576465
77385;BMP280;66444;49.680;18.538;2024-02-23T21:17:37;95623.78511002618;;;11.839880312327296
77385;BMP280;66444;49.680;18.538;2024-02-23T21:22:42;95618.45846386564;;;11.839880312327296
77385;BMP280;66444;49.680;18.538;2024-02-23T21:27:47;95594.88215997505;;;11.82462332113646
77385;BMP280;66444;49.680;18.538;2024-02-23T21:32:53;95609.31860343601;;;11.850051610684023
77385;BMP280;66444;49.680;18.538;2024-02-23T21:37:58;95606.29180587502;;;11.829708990687504
77385;BMP280;66444;49.680;18.538;2024-02-23T21:43:08;95622.24243831346;;;11.865308514563367
77385;BMP280;66444;49.680;18.538;2024-02-23T21:48:13;95638.1944729152;;;11.900907753221691
77385;BMP280;66444;49.680;18.538;2024-02-23T21:53:20;95633.59463987709;;;11.941592248156667
77385;BMP280;66444;49.680;18.538;2024-02-23T21:58:35;95641.22210124588;;;11.921250047255308